Time;durP1;ratioP1;P1;durP2;ratioP2;P2;SDS_P1;SDS_P2;PMS_P1;PMS_P2;Temp;Humidity;BMP_temperature;BMP_pressure;BME280_temperature;BME280_humidity;BME280_pressure;Samples;Min_cycle;Max_cycle;Signal;HPM_P1;HPM_P2
2023/08/24 00:00:45;;;;;;;7.93;6.68;;;;;;;18.39;96.28;101598.50;5039516;28;20033;-72
2023/08/24 00:03:11;;;;;;;7.75;6.47;;;;;;;18.29;96.57;101593.88;5022354;28;20049;-71
2023/08/24 00:05:36;;;;;;;7.72;6.47;;;;;;;18.34;96.64;101592.56;5035927;28;20445;-71
2023/08/24 00:08:06;;;;;;;8.20;7.03;;;;;;;18.26;97.23;101597.63;5023768;28;20430;-71
2023/08/24 00:10:31;;;;;;;8.10;6.95;;;;;;;18.25;96.89;101593.22;5039358;28;20083;-72
2023/08/24 00:12:57;;;;;;;7.13;6.30;;;;;;;18.33;96.66;101596.22;5031837;28;20495;-71
2023/08/24 00:15:22;;;;;;;9.15;6.93;;;;;;;18.33;96.79;101607.00;5041731;28;20037;-73
2023/08/24 00:17:48;;;;;;;7.97;6.25;;;;;;;18.31;96.83;101608.06;5035671;28;20168;-72
2023/08/24 00:20:13;;;;;;;7.53;6.53;;;;;;;18.35;96.23;101585.31;5037133;28;20483;-72
2023/08/24 00:22:39;;;;;;;9.43;6.90;;;;;;;18.34;96.63;101592.56;5025401;28;20029;-70
2023/08/24 00:25:06;;;;;;;7.88;6.55;;;;;;;18.33;96.75;101584.59;5040160;28;20059;-72
2023/08/24 00:27:32;;;;;;;8.95;6.30;;;;;;;18.21;97.14;101578.25;5045081;28;20242;-73
2023/08/24 00:29:57;;;;;;;7.90;6.93;;;;;;;18.17;97.79;101580.28;5035367;28;20058;-72
2023/08/24 00:32:23;;;;;;;9.85;6.85;;;;;;;18.17;97.54;101579.44;5034329;28;20037;-72
2023/08/24 00:34:49;;;;;;;9.07;6.88;;;;;;;18.11;98.03;101577.19;5055884;28;20056;-72
2023/08/24 00:37:14;;;;;;;7.30;6.60;;;;;;;18.16;98.02;101580.41;5041610;28;20021;-71
2023/08/24 00:39:40;;;;;;;9.30;6.50;;;;;;;18.14;97.91;101571.56;5032295;28;20028;-71
2023/08/24 00:42:06;;;;;;;8.45;6.53;;;;;;;18.16;97.84;101573.19;5035492;28;20032;-70
2023/08/24 00:44:31;;;;;;;9.30;6.60;;;;;;;18.12;97.95;101571.69;5043583;28;20025;-71
2023/08/24 00:46:59;;;;;;;8.18;7.03;;;;;;;18.05;98.81;101562.28;5030836;28;20525;-70
2023/08/24 00:49:24;;;;;;;8.15;6.70;;;;;;;17.99;99.23;101564.59;5029684;28;20116;-70
2023/08/24 00:51:51;;;;;;;8.65;6.72;;;;;;;18.01;99.33;101563.47;5033693;28;20124;-71
2023/08/24 00:54:17;;;;;;;8.43;7.05;;;;;;;18.13;98.97;101556.38;5050280;28;20048;-71
2023/08/24 00:56:42;;;;;;;7.90;6.43;;;;;;;18.19;98.35;101550.56;5055132;28;20488;-71
2023/08/24 00:59:07;;;;;;;12.45;6.70;;;;;;;18.13;98.60;101554.53;5040193;28;20047;-71
2023/08/24 01:01:33;;;;;;;7.97;6.65;;;;;;;18.13;98.66;101569.84;5047035;28;20367;-72
2023/08/24 01:03:59;;;;;;;9.23;6.93;;;;;;;18.16;98.55;101558.84;5043794;28;20178;-72
2023/08/24 01:06:24;;;;;;;8.70;7.13;;;;;;;18.16;98.33;101557.00;5040917;28;20112;-71
2023/08/24 01:08:50;;;;;;;7.53;6.80;;;;;;;18.10;98.48;101554.78;5045614;28;20033;-71
2023/08/24 01:11:48;;;;;;;8.57;6.50;;;;;;;18.06;98.87;101568.56;5025349;28;20224;-71
2023/08/24 01:14:44;;;;;;;10.68;6.95;;;;;;;18.07;98.70;101570.28;5028283;28;20514;-71
2023/08/24 01:17:14;;;;;;;8.02;6.82;;;;;;;18.01;99.52;101563.47;5038018;28;20051;-71
2023/08/24 01:19:43;;;;;;;7.97;7.07;;;;;;;18.02;99.68;101559.84;5042759;28;20495;-72
2023/08/24 01:22:27;;;;;;;8.68;7.70;;;;;;;17.96;99.66;101560.25;5030827;28;20447;-69
2023/08/24 01:24:55;;;;;;;;;;;;;;;18.08;96.84;101554.00;5026067;28;20025;-72
2023/08/24 01:27:22;;;;;;;9.27;7.35;;;;;;;17.96;99.24;101564.78;5048005;28;19913;-71
2023/08/24 01:29:52;;;;;;;9.32;7.60;;;;;;;18.03;99.32;101556.16;5028178;28;20078;-71
2023/08/24 01:32:18;;;;;;;12.43;7.82;;;;;;;18.03;99.66;101550.78;5044348;28;20420;-72
2023/08/24 01:34:43;;;;;;;7.82;7.03;;;;;;;18.01;99.72;101546.47;5030380;28;20289;-70
2023/08/24 01:37:08;;;;;;;11.57;7.63;;;;;;;17.99;99.61;101543.91;5040785;28;20376;-71
2023/08/24 01:40:05;;;;;;;10.60;7.72;;;;;;;18.03;99.51;101539.16;5037205;28;20116;-71
2023/08/24 01:42:35;;;;;;;10.15;7.40;;;;;;;17.97;100.00;101539.56;5027606;28;20538;-71
2023/08/24 01:45:05;;;;;;;11.18;7.93;;;;;;;17.93;100.00;101549.69;5025136;28;20032;-72
2023/08/24 01:47:32;;;;;;;10.43;7.82;;;;;;;18.07;99.49;101546.91;5032495;28;20383;-72
2023/08/24 01:49:57;;;;;;;8.50;7.55;;;;;;;18.03;100.00;101550.78;5037682;28;20060;-72
2023/08/24 01:52:24;;;;;;;10.30;7.85;;;;;;;18.02;100.00;101553.59;5047665;28;20199;-72
2023/08/24 01:54:50;;;;;;;10.88;8.23;;;;;;;18.01;100.00;101552.72;5030062;28;20025;-72
2023/08/24 01:57:15;;;;;;;11.35;8.15;;;;;;;18.10;99.81;101546.69;5036666;28;20078;-71
2023/08/24 01:59:40;;;;;;;8.82;7.35;;;;;;;18.10;99.98;101545.81;5046514;28;20034;-70
2023/08/24 02:02:06;;;;;;;10.00;8.00;;;;;;;18.15;99.49;101549.91;5037749;28;20040;-70
2023/08/24 02:04:31;;;;;;;8.57;7.70;;;;;;;18.18;99.39;101543.44;5056879;28;20115;-72
2023/08/24 02:06:57;;;;;;;10.80;8.20;;;;;;;18.21;99.47;101555.81;5045199;28;20033;-72
2023/08/24 02:09:22;;;;;;;10.18;8.57;;;;;;;18.23;99.48;101551.22;5040720;28;20059;-71
2023/08/24 02:11:50;;;;;;;10.30;8.15;;;;;;;18.28;98.99;101551.72;5039411;28;20033;-72
2023/08/24 02:14:16;;;;;;;11.50;8.13;;;;;;;18.21;99.15;101531.56;5050163;28;20116;-72
2023/08/24 02:16:41;;;;;;;10.13;8.68;;;;;;;18.16;99.90;101523.81;5039006;28;20111;-72
2023/08/24 02:19:07;;;;;;;11.05;8.10;;;;;;;18.07;100.00;101519.97;5039028;28;20025;-72
2023/08/24 02:21:35;;;;;;;10.05;8.68;;;;;;;18.12;100.00;101523.19;5033894;28;20029;-70
2023/08/24 02:24:01;;;;;;;9.80;8.35;;;;;;;18.20;100.00;101524.47;5036428;28;20248;-72
2023/08/24 02:26:26;;;;;;;10.27;8.48;;;;;;;18.19;99.97;101523.63;5047039;28;20031;-71
2023/08/24 02:28:51;;;;;;;13.48;9.23;;;;;;;18.13;100.00;101527.59;5042820;28;20512;-72
2023/08/24 02:31:17;;;;;;;11.10;8.88;;;;;;;18.16;100.00;101527.38;5046883;28;20140;-72
2023/08/24 02:33:42;;;;;;;10.95;8.77;;;;;;;18.22;99.93;101530.59;5037291;28;20034;-71
2023/08/24 02:36:07;;;;;;;12.15;8.73;;;;;;;18.27;99.97;101532.00;5045563;28;20033;-72
2023/08/24 02:38:33;;;;;;;9.75;8.55;;;;;;;18.23;99.86;101529.66;5048860;28;20035;-72
2023/08/24 02:41:05;;;;;;;10.30;8.80;;;;;;;18.23;100.00;101530.50;5046869;28;20889;-71
2023/08/24 02:43:32;;;;;;;11.60;8.75;;;;;;;18.25;99.90;101528.56;5044354;28;20029;-71
2023/08/24 02:46:03;;;;;;;10.73;8.32;;;;;;;18.26;100.00;101535.66;5039206;28;21994;-71
2023/08/24 02:48:28;;;;;;;9.85;8.45;;;;;;;18.20;100.00;101519.09;5038613;28;20032;-71
2023/08/24 02:50:54;;;;;;;10.23;8.68;;;;;;;18.26;100.00;101518.63;5045317;28;20037;-72
2023/08/24 02:53:19;;;;;;;10.98;8.93;;;;;;;18.20;100.00;101503.78;5046659;28;20515;-71
2023/08/24 02:55:44;;;;;;;11.20;10.00;;;;;;;18.23;100.00;101498.19;5034457;28;20033;-72
2023/08/24 02:58:10;;;;;;;11.40;9.00;;;;;;;18.18;100.00;101492.22;5041672;28;20507;-70
2023/08/24 03:00:38;;;;;;;11.55;9.20;;;;;;;18.13;100.00;101489.88;5040263;28;20260;-72
2023/08/24 03:03:05;;;;;;;14.07;8.98;;;;;;;18.09;100.00;101484.81;5047382;28;20037;-71
2023/08/24 03:05:32;;;;;;;13.98;9.98;;;;;;;18.04;100.00;101468.13;5034660;28;20032;-70
2023/08/24 03:07:57;;;;;;;13.05;10.65;;;;;;;17.88;100.00;101471.06;5043897;28;20043;-69
2023/08/24 03:10:23;;;;;;;16.17;10.85;;;;;;;17.64;100.00;101447.59;5038357;28;20094;-70
2023/08/24 03:12:48;;;;;;;12.93;11.52;;;;;;;17.41;100.00;101443.81;5053616;28;20024;-70
2023/08/24 03:15:14;;;;;;;14.38;12.07;;;;;;;17.28;100.00;101416.06;5048897;28;20499;-69
2023/08/24 03:17:40;;;;;;;15.45;13.27;;;;;;;17.07;100.00;101407.66;5038859;28;20017;-69
2023/08/24 03:20:06;;;;;;;15.43;13.23;;;;;;;17.02;100.00;101414.31;5035167;28;20513;-69
2023/08/24 03:22:31;;;;;;;15.35;13.75;;;;;;;16.95;100.00;101421.94;5050879;28;20445;-69
2023/08/24 03:24:57;;;;;;;15.80;13.30;;;;;;;16.87;100.00;101440.41;5043916;28;20025;-68
2023/08/24 03:27:22;;;;;;;15.20;13.20;;;;;;;16.84;100.00;101433.41;5034771;28;20034;-69
2023/08/24 03:29:47;;;;;;;15.73;13.90;;;;;;;16.88;100.00;101426.00;5038428;28;20147;-69
2023/08/24 03:32:13;;;;;;;19.13;14.45;;;;;;;16.84;100.00;101402.97;5051461;28;20505;-69
2023/08/24 03:34:38;;;;;;;18.63;13.38;;;;;;;16.85;100.00;101391.28;5036912;28;20040;-69
2023/08/24 03:37:03;;;;;;;16.95;14.82;;;;;;;16.78;100.00;101374.69;5034529;28;20104;-69
2023/08/24 03:39:29;;;;;;;16.73;14.07;;;;;;;16.90;100.00;101367.63;5040534;28;20025;-69
2023/08/24 03:41:54;;;;;;;17.50;14.13;;;;;;;16.87;100.00;101357.94;5041482;28;20021;-69
2023/08/24 03:44:19;;;;;;;18.70;15.10;;;;;;;16.85;100.00;101335.69;5035261;28;20044;-69
2023/08/24 03:46:45;;;;;;;17.38;15.07;;;;;;;16.92;100.00;101331.56;5039930;28;20032;-69
2023/08/24 03:49:10;;;;;;;19.77;16.58;;;;;;;16.92;100.00;101328.88;5055786;28;20025;-68
2023/08/24 03:51:36;;;;;;;22.65;16.80;;;;;;;16.92;100.00;101322.66;5043388;28;20038;-69
2023/08/24 03:54:03;;;;;;;20.80;17.08;;;;;;;16.91;100.00;101324.50;5027594;28;20033;-69
2023/08/24 03:56:28;;;;;;;20.63;17.65;;;;;;;16.96;100.00;101315.25;5052139;28;20033;-69
2023/08/24 03:58:53;;;;;;;19.38;16.60;;;;;;;17.00;100.00;101314.06;5041089;28;20535;-69
2023/08/24 04:01:19;;;;;;;21.25;17.85;;;;;;;17.04;100.00;101310.19;5040601;28;20056;-68
2023/08/24 04:03:44;;;;;;;20.25;17.80;;;;;;;17.10;100.00;101301.69;5042380;28;20048;-68
2023/08/24 04:06:10;;;;;;;23.30;18.23;;;;;;;17.22;100.00;101308.88;5032308;28;20094;-69
2023/08/24 04:08:35;;;;;;;22.77;18.65;;;;;;;17.23;100.00;101313.31;5071470;28;20021;-69
2023/08/24 04:11:01;;;;;;;23.08;19.10;;;;;;;17.31;100.00;101316.31;5045224;28;20497;-69
2023/08/24 04:13:26;;;;;;;23.10;19.88;;;;;;;17.36;100.00;101311.44;5032483;28;20503;-69
2023/08/24 04:15:52;;;;;;;20.73;18.30;;;;;;;17.42;100.00;101320.91;5038609;28;20025;-70
2023/08/24 04:18:17;;;;;;;21.85;19.52;;;;;;;17.46;100.00;101321.53;5028125;28;20067;-70
2023/08/24 04:20:42;;;;;;;19.85;17.95;;;;;;;17.46;100.00;101330.47;5031115;28;20466;-70
2023/08/24 04:23:10;;;;;;;20.70;18.60;;;;;;;17.48;100.00;101335.75;5041919;28;20047;-70
2023/08/24 04:25:38;;;;;;;21.40;18.77;;;;;;;17.47;100.00;101342.09;5033296;28;20500;-68
2023/08/24 04:28:04;;;;;;;20.52;18.33;;;;;;;17.45;100.00;101336.84;5030493;28;20567;-71
2023/08/24 04:30:29;;;;;;;21.70;19.17;;;;;;;17.53;100.00;101342.53;5042600;28;20024;-69
2023/08/24 04:32:55;;;;;;;22.25;19.52;;;;;;;17.61;100.00;101347.34;5041754;28;20028;-71
2023/08/24 04:35:20;;;;;;;21.85;19.33;;;;;;;17.67;100.00;101352.28;5045529;28;20361;-70
2023/08/24 04:37:45;;;;;;;19.65;17.42;;;;;;;17.72;100.00;101366.25;5041875;28;20077;-69
2023/08/24 04:40:11;;;;;;;21.00;18.98;;;;;;;17.74;100.00;101361.69;5071366;28;20131;-70
2023/08/24 04:42:36;;;;;;;20.98;18.20;;;;;;;17.77;100.00;101374.94;5049043;28;20476;-70
2023/08/24 04:45:02;;;;;;;21.85;19.48;;;;;;;17.73;100.00;101373.41;5044253;28;20502;-71
2023/08/24 04:47:27;;;;;;;22.58;18.88;;;;;;;17.76;100.00;101364.25;5042540;28;20017;-70
2023/08/24 04:49:53;;;;;;;20.90;18.70;;;;;;;17.70;100.00;101362.84;5040397;28;20030;-70
2023/08/24 04:52:21;;;;;;;22.77;19.67;;;;;;;17.64;100.00;101363.25;5044542;28;20057;-71
2023/08/24 04:54:46;;;;;;;20.40;18.17;;;;;;;17.66;100.00;101361.34;5038752;28;20022;-70
2023/08/24 04:57:13;;;;;;;21.70;19.45;;;;;;;17.63;100.00;101358.84;5039952;28;20035;-70
2023/08/24 04:59:38;;;;;;;21.60;19.17;;;;;;;17.61;100.00;101368.91;5050338;28;20035;-70
2023/08/24 05:02:03;;;;;;;23.70;20.25;;;;;;;17.64;100.00;101360.56;5050099;28;20384;-71
2023/08/24 05:04:29;;;;;;;23.73;20.52;;;;;;;17.60;100.00;101356.41;5044233;28;20067;-70
2023/08/24 05:06:54;;;;;;;23.15;20.25;;;;;;;17.66;100.00;101353.25;5052458;28;20029;-71
2023/08/24 05:09:19;;;;;;;21.52;19.23;;;;;;;17.61;100.00;101358.97;5041438;28;20428;-70
2023/08/24 05:11:45;;;;;;;22.42;19.92;;;;;;;17.60;100.00;101356.41;5061263;28;20036;-70
2023/08/24 05:14:10;;;;;;;20.60;18.58;;;;;;;17.69;100.00;101361.13;5040726;28;20037;-70
2023/08/24 05:16:36;;;;;;;23.63;21.05;;;;;;;17.65;100.00;101362.31;5036509;28;20025;-71
2023/08/24 05:19:03;;;;;;;24.15;21.77;;;;;;;17.73;100.00;101373.41;5034506;28;20866;-70
2023/08/24 05:21:28;;;;;;;25.60;22.95;;;;;;;17.71;100.00;101369.06;5038438;28;20029;-74
2023/08/24 05:23:54;;;;;;;25.95;21.92;;;;;;;17.71;100.00;101369.94;5035736;28;20818;-70
2023/08/24 05:26:22;;;;;;;21.75;19.60;;;;;;;17.71;100.00;101361.84;5033446;28;20490;-71
2023/08/24 05:28:47;;;;;;;22.67;20.25;;;;;;;17.61;100.00;101366.19;5037677;28;20025;-70
2023/08/24 05:31:13;;;;;;;22.60;20.33;;;;;;;17.54;100.00;101360.38;5029911;28;20483;-72
2023/08/24 05:33:38;;;;;;;25.33;21.48;;;;;;;17.47;100.00;101358.25;5049747;28;20546;-70
2023/08/24 05:36:04;;;;;;;25.58;22.15;;;;;;;17.47;100.00;101355.53;5037655;28;20554;-70
2023/08/24 05:38:29;;;;;;;24.80;21.35;;;;;;;17.46;100.00;101359.22;5036276;28;20028;-72
2023/08/24 05:40:55;;;;;;;24.67;22.13;;;;;;;17.44;100.00;101359.34;5030665;28;20479;-70
2023/08/24 05:43:20;;;;;;;24.23;21.60;;;;;;;17.42;100.00;101348.66;5033376;28;20572;-69
2023/08/24 05:45:46;;;;;;;25.75;21.40;;;;;;;17.39;100.00;101339.97;5031056;28;20060;-70
2023/08/24 05:48:12;;;;;;;24.25;21.65;;;;;;;17.38;100.00;101332.84;5037151;28;20018;-71
2023/08/24 05:50:42;;;;;;;24.13;21.63;;;;;;;17.37;100.00;101325.75;5036727;28;20025;-71
2023/08/24 05:53:07;;;;;;;27.13;22.48;;;;;;;17.39;100.00;101319.31;5031366;28;20446;-70
2023/08/24 05:55:32;;;;;;;24.73;22.13;;;;;;;17.55;100.00;101323.56;5038066;28;20047;-70
2023/08/24 05:57:58;;;;;;;25.10;21.23;;;;;;;17.69;100.00;101318.06;5052899;28;20028;-71
2023/08/24 06:00:23;;;;;;;25.75;23.02;;;;;;;17.92;100.00;101328.00;5039521;28;20029;-70
2023/08/24 06:02:51;;;;;;;24.05;21.52;;;;;;;18.06;100.00;101318.91;5036289;28;20368;-70
2023/08/24 06:05:17;;;;;;;24.48;21.10;;;;;;;18.27;100.00;101308.34;5034372;28;20483;-71
2023/08/24 06:07:43;;;;;;;23.58;21.13;;;;;;;18.26;100.00;101300.38;5043110;28;20038;-72
2023/08/24 06:10:09;;;;;;;23.58;20.67;;;;;;;18.32;100.00;101302.63;5043181;28;20701;-71
2023/08/24 06:12:35;;;;;;;23.02;20.70;;;;;;;18.45;100.00;101289.06;5028262;28;20024;-71
2023/08/24 06:15:03;;;;;;;22.95;20.55;;;;;;;18.59;100.00;101278.06;5038769;28;20044;-70
2023/08/24 06:17:29;;;;;;;21.92;19.73;;;;;;;18.70;100.00;101264.63;5045161;28;20029;-70
2023/08/24 06:19:54;;;;;;;22.30;19.95;;;;;;;18.86;100.00;101269.69;5035077;28;20021;-71
2023/08/24 06:22:19;;;;;;;21.92;19.77;;;;;;;18.99;100.00;101272.28;5036305;28;20388;-71
2023/08/24 06:24:45;;;;;;;22.65;20.40;;;;;;;19.11;100.00;101258.66;5050064;28;20360;-71
2023/08/24 06:27:10;;;;;;;21.17;19.17;;;;;;;19.32;100.00;101266.88;5045298;28;20569;-70
2023/08/24 06:29:35;;;;;;;21.05;18.85;;;;;;;19.51;100.00;101284.25;5053333;28;20756;-71
2023/08/24 06:32:01;;;;;;;20.73;18.65;;;;;;;19.69;100.00;101293.59;5049342;28;20395;-71
2023/08/24 06:34:26;;;;;;;20.73;18.63;;;;;;;19.87;100.00;101293.91;5046080;28;20177;-72
2023/08/24 06:36:53;;;;;;;20.45;18.38;;;;;;;20.07;100.00;101292.25;5038789;28;20039;-71
2023/08/24 06:39:19;;;;;;;19.73;17.73;;;;;;;20.25;100.00;101292.56;5036396;28;20162;-71
2023/08/24 06:41:44;;;;;;;19.70;17.75;;;;;;;20.30;100.00;101282.19;5067518;28;20078;-71
2023/08/24 06:44:10;;;;;;;19.83;17.77;;;;;;;20.54;100.00;101287.41;5046178;28;20040;-71
2023/08/24 06:46:35;;;;;;;20.02;17.73;;;;;;;20.73;100.00;101286.66;5044956;28;20534;-71
2023/08/24 06:49:01;;;;;;;19.02;17.08;;;;;;;20.95;96.76;101286.53;5050584;28;20032;-71
2023/08/24 06:51:26;;;;;;;18.10;16.20;;;;;;;21.14;96.79;101289.31;5037469;28;20052;-70
2023/08/24 06:53:52;;;;;;;17.60;15.88;;;;;;;21.40;93.92;101286.16;5049254;28;20029;-70
2023/08/24 06:56:18;;;;;;;18.70;16.70;;;;;;;21.62;89.66;101290.50;5049519;28;20489;-70
2023/08/24 06:58:44;;;;;;;18.00;16.27;;;;;;;21.62;89.74;101294.06;5042544;28;20041;-71
2023/08/24 07:01:10;;;;;;;17.73;16.00;;;;;;;22.05;88.20;101283.88;5033492;28;20261;-71
2023/08/24 07:03:36;;;;;;;16.30;14.60;;;;;;;22.20;84.90;101287.06;5047572;28;20045;-72
2023/08/24 07:06:02;;;;;;;15.85;14.25;;;;;;;22.40;86.16;101293.31;5037388;28;20506;-72
2023/08/24 07:08:27;;;;;;;14.68;13.18;;;;;;;22.74;81.69;101289.16;5041301;28;20494;-72
2023/08/24 07:10:53;;;;;;;17.13;13.68;;;;;;;23.02;81.32;101286.50;5041633;28;20028;-72
2023/08/24 07:13:18;;;;;;;15.55;13.95;;;;;;;23.33;79.56;101273.53;5042203;28;20061;-73
2023/08/24 07:15:45;;;;;;;16.30;13.55;;;;;;;23.50;79.15;101266.44;5051710;28;20033;-72
2023/08/24 07:18:11;;;;;;;14.60;13.10;;;;;;;23.72;77.63;101260.59;5041210;28;20116;-72
2023/08/24 07:20:37;;;;;;;14.32;12.65;;;;;;;23.97;76.29;101260.84;5041081;28;20064;-72
2023/08/24 07:23:03;;;;;;;13.85;11.68;;;;;;;24.25;75.69;101254.31;5051354;28;20033;-71
2023/08/24 07:25:28;;;;;;;13.32;10.80;;;;;;;24.50;71.44;101262.72;5044812;28;20039;-72
2023/08/24 07:27:58;;;;;;;14.20;10.15;;;;;;;24.59;70.47;101257.16;5053242;28;20036;-72
2023/08/24 07:30:27;;;;;;;12.73;10.30;;;;;;;24.84;70.56;101258.19;5048497;28;20492;-72
2023/08/24 07:32:55;;;;;;;11.73;10.38;;;;;;;25.08;68.38;101262.03;5039182;28;20029;-72
2023/08/24 07:35:21;;;;;;;12.73;9.88;;;;;;;25.24;68.44;101256.69;5050215;28;20029;-73
2023/08/24 07:37:52;;;;;;;12.48;9.95;;;;;;;25.62;68.21;101264.50;5039220;28;20414;-72
2023/08/24 07:40:18;;;;;;;13.48;9.68;;;;;;;25.81;65.38;101258.81;5038710;28;21752;-73
2023/08/24 07:42:50;;;;;;;11.70;9.70;;;;;;;26.02;63.00;101251.00;5044399;28;20472;-73
2023/08/24 07:45:16;;;;;;;10.75;9.05;;;;;;;26.24;63.74;101249.47;5046741;28;20597;-73
2023/08/24 07:47:42;;;;;;;14.55;9.50;;;;;;;26.46;63.55;101247.97;5046595;28;20029;-73
2023/08/24 07:50:08;;;;;;;11.35;8.07;;;;;;;26.93;62.23;101244.47;5042848;28;20409;-72
2023/08/24 07:52:34;;;;;;;9.85;8.38;;;;;;;27.18;61.27;101242.53;5051578;28;20056;-72
2023/08/24 07:55:00;;;;;;;11.23;7.97;;;;;;;27.25;60.62;101248.97;5041937;28;20380;-72
2023/08/24 07:57:26;;;;;;;10.45;9.18;;;;;;;27.34;59.20;101248.94;5050932;28;20029;-72
2023/08/24 07:59:52;;;;;;;11.05;8.43;;;;;;;27.33;58.57;101252.69;5039647;28;20029;-72
2023/08/24 08:02:17;;;;;;;12.20;7.97;;;;;;;27.33;58.81;101259.00;5044351;28;20672;-72
2023/08/24 08:04:43;;;;;;;9.73;8.57;;;;;;;27.33;56.95;101248.09;5037643;28;20032;-72
2023/08/24 08:07:08;;;;;;;9.02;8.13;;;;;;;27.61;60.64;101259.41;5040670;28;20033;-72
2023/08/24 08:09:36;;;;;;;8.55;7.68;;;;;;;27.75;57.40;101247.72;5041999;28;20025;-73
2023/08/24 08:12:01;;;;;;;9.05;8.15;;;;;;;27.76;57.54;101246.69;5051731;28;20248;-72
2023/08/24 08:14:27;;;;;;;8.88;7.97;;;;;;;27.98;56.67;101244.16;5045590;28;20075;-73
2023/08/24 08:16:52;;;;;;;9.50;8.07;;;;;;;28.12;56.94;101248.81;5045701;28;20153;-73
2023/08/24 08:19:19;;;;;;;10.50;8.25;;;;;;;28.23;55.27;101253.03;5043203;28;20039;-73
2023/08/24 08:21:45;;;;;;;10.13;7.93;;;;;;;28.22;54.88;101241.22;5058313;28;20046;-73
2023/08/24 08:24:10;;;;;;;10.02;8.38;;;;;;;28.08;55.17;101239.28;5046175;28;20480;-72
2023/08/24 08:26:36;;;;;;;11.65;8.63;;;;;;;28.15;56.14;101239.41;5039717;28;20052;-73
2023/08/24 08:29:02;;;;;;;10.68;8.43;;;;;;;27.98;55.16;101227.75;5047102;28;20041;-71
2023/08/24 08:31:27;;;;;;;9.50;7.93;;;;;;;28.20;56.08;101228.75;5043248;28;20579;-72
2023/08/24 08:33:52;;;;;;;8.88;7.63;;;;;;;28.27;55.34;101233.31;5044449;28;20025;-70
2023/08/24 08:36:18;;;;;;;10.57;7.93;;;;;;;28.38;55.55;101236.66;5032079;28;20025;-70
2023/08/24 08:38:43;;;;;;;11.05;7.57;;;;;;;28.38;55.12;101236.66;5037654;28;20405;-70
2023/08/24 08:41:09;;;;;;;10.98;7.40;;;;;;;28.34;54.67;101227.94;5046942;28;20164;-70
2023/08/24 08:43:34;;;;;;;8.60;7.20;;;;;;;28.45;55.39;101226.69;5050648;28;20048;-70
2023/08/24 08:46:00;;;;;;;10.13;6.50;;;;;;;28.49;53.64;101203.38;5033198;28;20041;-69
2023/08/24 08:48:27;;;;;;;11.35;6.93;;;;;;;28.54;54.05;101192.69;5030335;28;20111;-70
2023/08/24 08:50:55;;;;;;;9.18;6.90;;;;;;;28.40;54.34;101171.63;5045216;28;20105;-70
2023/08/24 08:53:22;;;;;;;10.98;7.07;;;;;;;28.50;54.71;101175.78;5049173;28;20280;-70
2023/08/24 08:55:53;;;;;;;11.90;8.00;;;;;;;28.07;56.03;101163.69;5060249;28;20144;-71
2023/08/24 08:58:20;;;;;;;9.93;7.85;;;;;;;27.94;56.96;101158.84;5052072;28;20044;-70
2023/08/24 09:00:47;;;;;;;8.63;7.47;;;;;;;27.94;57.03;101147.91;5038664;28;20026;-70
2023/08/24 09:03:14;;;;;;;11.27;8.70;;;;;;;27.97;57.31;101150.28;5039283;28;20048;-70
2023/08/24 09:05:39;;;;;;;9.07;7.72;;;;;;;28.25;57.70;101141.47;5048835;28;20028;-71
2023/08/24 09:08:06;;;;;;;8.63;7.65;;;;;;;28.23;57.36;101133.44;5038043;28;20552;-71
2023/08/24 09:10:31;;;;;;;11.85;8.48;;;;;;;28.34;56.93;101123.06;5037740;28;20068;-70
2023/08/24 09:12:57;;;;;;;9.48;8.52;;;;;;;28.44;55.77;101118.22;5039342;28;20025;-70
2023/08/24 09:15:29;;;;;;;9.00;8.05;;;;;;;28.51;56.41;101108.22;5039916;28;20029;-70
2023/08/24 09:17:59;;;;;;;9.07;8.20;;;;;;;28.67;56.01;101091.56;5051057;28;20127;-70
2023/08/24 09:20:28;;;;;;;9.23;8.07;;;;;;;28.66;56.41;101089.84;5041017;28;20028;-71
2023/08/24 09:22:56;;;;;;;12.55;8.13;;;;;;;28.83;55.69;101092.38;5039622;28;20055;-71
2023/08/24 09:25:22;;;;;;;9.85;8.65;;;;;;;28.88;55.70;101087.19;5050609;28;20032;-71
2023/08/24 09:28:08;;;;;;;9.65;8.55;;;;;;;28.80;55.79;101090.88;5043055;28;20341;-69
2023/08/24 09:30:37;;;;;;;10.55;8.15;;;;;;;28.75;56.30;101098.81;5045327;28;20033;-69
2023/08/24 09:33:13;;;;;;;10.43;8.48;;;;;;;28.78;55.89;101103.94;5042730;28;20029;-68
2023/08/24 09:35:38;;;;;;;9.38;7.57;;;;;;;28.89;54.68;101108.94;5035021;28;20039;-68
2023/08/24 09:38:23;;;;;;;9.55;7.22;;;;;;;29.26;55.47;101118.00;5032628;28;20435;-69
2023/08/24 09:40:55;;;;;;;9.02;7.10;;;;;;;29.37;54.59;101136.69;5047266;28;20029;-70
2023/08/24 09:43:22;;;;;;;6.95;5.88;;;;;;;29.80;53.80;101144.13;5044036;28;20111;-70
2023/08/24 09:45:51;;;;;;;7.43;5.80;;;;;;;30.07;50.78;101161.69;5041733;28;20024;-70
2023/08/24 09:48:17;;;;;;;6.40;5.30;;;;;;;30.23;50.16;101161.44;5055502;28;20034;-70
2023/08/24 09:50:46;;;;;;;8.52;5.18;;;;;;;30.33;51.34;101172.06;5043194;28;20390;-71
2023/08/24 09:53:22;;;;;;;8.55;5.25;;;;;;;30.45;50.98;101165.81;5052251;28;20505;-71
2023/08/24 09:56:01;;;;;;;8.25;4.63;;;;;;;30.36;50.75;101157.94;5042083;28;20035;-73
2023/08/24 09:58:27;;;;;;;6.03;4.20;;;;;;;30.17;50.52;101165.78;5032281;28;20051;-71
2023/08/24 10:00:54;;;;;;;7.40;4.25;;;;;;;29.84;50.34;101170.13;5048668;28;20420;-72
2023/08/24 10:03:30;;;;;;;8.77;4.25;;;;;;;29.50;52.35;101175.22;5044671;28;20067;-72
2023/08/24 10:06:00;;;;;;;6.90;4.30;;;;;;;29.43;54.04;101185.28;5040728;28;20380;-72
2023/08/24 10:08:29;;;;;;;4.95;4.03;;;;;;;29.55;53.46;101191.09;5041029;28;20094;-71
2023/08/24 10:10:58;;;;;;;6.93;4.40;;;;;;;29.24;53.49;101188.63;5041796;28;20029;-72
2023/08/24 10:13:49;;;;;;;7.15;4.38;;;;;;;29.12;54.81;101184.69;5042448;28;20025;-72
2023/08/24 10:16:16;;;;;;;7.53;4.25;;;;;;;28.86;55.23;101182.44;5042310;28;20028;-72
2023/08/24 10:18:42;;;;;;;7.63;3.97;;;;;;;28.50;55.07;101172.19;5046205;28;20488;-72
2023/08/24 10:21:08;;;;;;;8.35;4.63;;;;;;;28.16;56.38;101176.28;5047197;28;20036;-72
2023/08/24 10:23:35;;;;;;;6.47;4.25;;;;;;;27.84;57.77;101169.22;5047300;28;20033;-71
2023/08/24 10:26:03;;;;;;;8.27;4.78;;;;;;;27.52;57.64;101162.06;5042314;28;20407;-71
2023/08/24 10:28:29;;;;;;;5.25;4.32;;;;;;;27.41;59.71;101170.66;5035796;28;20032;-71
2023/08/24 10:30:57;;;;;;;7.95;4.72;;;;;;;27.27;59.96;101170.41;5039785;28;20036;-71
2023/08/24 10:33:24;;;;;;;8.60;5.50;;;;;;;27.07;60.37;101180.03;5041695;28;20535;-72
2023/08/24 10:35:50;;;;;;;5.32;4.82;;;;;;;26.82;61.59;101201.13;5038134;28;21178;-72
2023/08/24 10:38:44;;;;;;;7.47;5.25;;;;;;;26.62;61.49;101197.94;5037642;28;20306;-72
2023/08/24 10:41:13;;;;;;;7.07;5.05;;;;;;;26.33;62.67;101202.06;5042961;28;20119;-73
2023/08/24 10:43:40;;;;;;;9.23;5.30;;;;;;;26.18;63.76;101217.41;5043559;28;20024;-72
2023/08/24 10:46:13;;;;;;;8.70;5.60;;;;;;;26.06;64.27;101221.50;5043625;28;20096;-72
2023/08/24 10:48:41;;;;;;;7.38;5.65;;;;;;;25.93;64.71;101223.88;5041646;28;20268;-71
2023/08/24 10:51:26;;;;;;;6.95;5.60;;;;;;;25.84;65.01;101223.03;5039010;28;20048;-70
2023/08/24 10:53:59;;;;;;;8.95;5.47;;;;;;;25.80;66.49;101238.00;5037971;28;20033;-71
2023/08/24 10:56:38;;;;;;;9.27;6.05;;;;;;;25.74;66.27;101209.50;5042379;28;20021;-70
2023/08/24 10:59:14;;;;;;;9.93;5.97;;;;;;;25.77;67.65;101187.38;5044130;28;20028;-71
2023/08/24 11:01:41;;;;;;;7.47;6.20;;;;;;;25.86;67.68;101185.53;5042430;28;20258;-71
2023/08/24 11:04:10;;;;;;;11.82;6.53;;;;;;;25.93;67.26;101191.16;5035807;28;20447;-73
2023/08/24 11:06:51;;;;;;;8.75;5.97;;;;;;;26.00;67.21;101198.50;5039185;28;20048;-70
2023/08/24 11:09:17;;;;;;;9.07;5.70;;;;;;;25.98;68.81;101202.41;5046871;28;20094;-71
2023/08/24 11:12:04;;;;;;;8.30;5.95;;;;;;;26.06;68.34;101199.69;5043954;28;20028;-71
2023/08/24 11:14:30;;;;;;;9.27;6.70;;;;;;;26.07;66.80;101187.75;5048637;28;20040;-72